createdAt,value
2018-03-14T00:04:14.440Z,97.30
2018-03-14T00:09:11.736Z,96.50
2018-03-14T00:14:08.968Z,97.00
2018-03-14T00:19:06.437Z,96.50
2018-03-14T00:24:03.647Z,96.60
2018-03-14T00:29:06.254Z,96.50
2018-03-14T00:34:03.336Z,96.50
2018-03-14T00:39:04.137Z,96.60
2018-03-14T00:44:01.275Z,97.10
2018-03-14T00:49:04.590Z,96.90
2018-03-14T00:54:01.761Z,96.00
2018-03-14T00:59:06.430Z,95.90
2018-03-14T01:04:03.644Z,95.30
2018-03-14T01:09:05.000Z,93.80
2018-03-14T01:14:02.209Z,93.80
2018-03-14T01:19:02.805Z,93.10
2018-03-14T01:23:59.929Z,91.70
2018-03-14T01:29:00.241Z,92.00
2018-03-14T01:33:58.073Z,91.80
2018-03-14T01:38:59.210Z,92.10
2018-03-14T01:43:56.964Z,91.90
2018-03-14T01:48:58.013Z,92.20
2018-03-14T01:53:55.277Z,91.80
2018-03-14T01:58:56.261Z,91.80
2018-03-14T02:03:53.477Z,92.00
2018-03-14T02:08:50.801Z,91.90
2018-03-14T02:13:47.932Z,92.00
2018-03-14T02:18:48.273Z,92.20
2018-03-14T02:23:45.461Z,92.30
2018-03-14T02:28:43.844Z,92.30
2018-03-14T02:33:41.069Z,92.20
2018-03-14T02:38:43.865Z,92.40
2018-03-14T02:43:41.070Z,92.40
2018-03-14T02:48:39.558Z,92.20
2018-03-14T02:53:36.865Z,92.30
2018-03-14T02:58:37.766Z,92.80
2018-03-14T03:03:35.025Z,93.60
2018-03-14T03:08:32.552Z,93.60
2018-03-14T03:13:29.742Z,94.10
2018-03-14T03:18:28.009Z,94.00
2018-03-14T03:23:25.288Z,93.00
2018-03-14T03:28:23.736Z,93.80
2018-03-14T03:33:21.105Z,93.90
2018-03-14T03:38:19.844Z,93.70
2018-03-14T03:43:17.120Z,93.70
2018-03-14T03:48:15.436Z,93.60
2018-03-14T03:53:12.730Z,93.90
2018-03-14T03:58:11.681Z,93.50
2018-03-14T04:03:08.853Z,93.60
2018-03-14T04:08:09.616Z,94.00
2018-03-14T04:13:06.908Z,94.30
2018-03-14T04:18:05.145Z,95.20
2018-03-14T04:23:02.496Z,95.90
2018-03-14T04:28:00.757Z,95.40
2018-03-14T04:32:58.676Z,93.60
2018-03-14T04:37:59.117Z,93.50
2018-03-14T04:42:56.334Z,93.80
2018-03-14T04:47:54.621Z,93.80
2018-03-14T04:52:52.219Z,93.60
2018-03-14T04:57:50.499Z,93.80
2018-03-14T05:02:47.741Z,93.60
2018-03-14T05:07:49.543Z,92.80
2018-03-14T05:12:46.754Z,92.80
2018-03-14T05:17:45.113Z,92.50
2018-03-14T05:22:42.425Z,92.60
2018-03-14T05:27:40.780Z,92.20
2018-03-14T05:32:38.018Z,92.30
2018-03-14T05:37:39.903Z,92.00
2018-03-14T05:42:37.219Z,92.00
2018-03-14T05:47:40.098Z,91.80
2018-03-14T05:52:37.291Z,91.60
2018-03-14T05:57:34.654Z,91.20
2018-03-14T06:02:31.902Z,91.00
2018-03-14T06:07:30.317Z,90.70
2018-03-14T06:12:27.339Z,90.70
2018-03-14T06:17:29.829Z,90.60
2018-03-14T06:22:27.883Z,90.00
2018-03-14T06:27:26.398Z,90.00
2018-03-14T06:32:23.635Z,90.10
2018-03-14T06:37:24.712Z,89.80
2018-03-14T06:42:24.140Z,89.80
2018-03-14T06:47:21.464Z,89.30
2018-03-14T06:52:19.302Z,89.00
2018-03-14T06:57:16.925Z,89.10
2018-03-14T07:02:32.053Z,88.30
2018-03-14T07:07:30.493Z,87.70
2018-03-14T07:12:27.827Z,86.80
2018-03-14T07:17:26.151Z,85.60
2018-03-14T07:22:23.281Z,85.60
2018-03-14T07:27:21.686Z,84.40
2018-03-14T07:32:18.954Z,83.10
2018-03-14T07:37:19.786Z,83.50
2018-03-14T07:42:16.989Z,82.90
2018-03-14T07:47:17.490Z,83.50
2018-03-14T07:52:14.802Z,83.80
2018-03-14T07:57:12.138Z,84.20
2018-03-14T08:02:09.521Z,82.10
2018-03-14T08:07:08.099Z,81.40
2018-03-14T08:21:18.925Z,79.00
2018-03-14T08:26:21.397Z,78.90
2018-03-14T08:31:18.720Z,80.10
2018-03-14T08:36:16.122Z,79.00
2018-03-14T08:41:13.986Z,78.20
2018-03-14T08:46:16.610Z,78.20
2018-03-14T08:51:14.965Z,76.90
2018-03-14T08:56:13.355Z,76.80
2018-03-14T09:01:10.592Z,75.40
2018-03-14T09:06:11.378Z,76.10
2018-03-14T09:11:08.471Z,73.80
2018-03-14T09:16:08.849Z,73.60
2018-03-14T09:21:06.005Z,69.90
2018-03-14T09:26:11.049Z,71.70
2018-03-14T09:31:08.349Z,71.30
2018-03-14T09:36:09.640Z,74.30
2018-03-14T09:41:06.899Z,72.90
2018-03-14T09:46:04.163Z,71.60
2018-03-14T09:51:01.306Z,72.00
2018-03-14T09:56:00.304Z,70.30
2018-03-14T10:00:57.426Z,70.00
2018-03-14T10:05:58.701Z,68.20
2018-03-14T10:10:55.928Z,68.80
2018-03-14T10:15:56.964Z,68.10
2018-03-14T10:20:54.205Z,65.20
2018-03-14T10:25:58.440Z,65.30
2018-03-14T10:30:55.589Z,66.50
2018-03-14T10:35:56.650Z,65.30
2018-03-14T10:40:53.876Z,64.90
2018-03-14T10:46:03.686Z,66.80
2018-03-14T10:51:01.306Z,64.60
2018-03-14T10:56:02.533Z,61.10
2018-03-14T11:01:05.813Z,63.20
2018-03-14T11:06:09.830Z,62.30
2018-03-14T11:11:07.618Z,59.20
2018-03-14T11:16:08.561Z,64.20
2018-03-14T11:21:05.726Z,61.90
2018-03-14T11:26:09.358Z,60.90
2018-03-14T11:31:06.461Z,59.00
2018-03-14T11:36:06.807Z,58.70
2018-03-14T11:41:04.056Z,60.20
2018-03-14T11:46:07.861Z,60.40
2018-03-14T11:51:05.182Z,59.20
2018-03-14T11:56:03.854Z,59.10
2018-03-14T12:01:01.036Z,58.70
2018-03-14T12:06:02.197Z,56.60
2018-03-14T12:11:00.119Z,55.30
2018-03-14T12:15:57.273Z,55.20
2018-03-14T12:20:54.588Z,56.30
2018-03-14T12:25:55.801Z,57.50
2018-03-14T12:30:53.811Z,61.60
2018-03-14T12:35:52.133Z,61.60
2018-03-14T12:40:49.378Z,69.00
2018-03-14T12:45:51.022Z,70.90
2018-03-14T12:50:48.322Z,69.80
2018-03-14T12:55:50.570Z,67.10
2018-03-14T13:00:48.450Z,69.00
2018-03-14T13:05:48.945Z,69.00
2018-03-14T13:10:46.244Z,73.00
2018-03-14T13:15:44.449Z,71.90
2018-03-14T13:20:41.702Z,72.20
2018-03-14T13:25:42.076Z,72.70
2018-03-14T13:30:39.322Z,71.70
2018-03-14T13:35:40.753Z,75.50
2018-03-14T13:40:38.058Z,75.40
2018-03-14T13:45:39.802Z,72.90
2018-03-14T13:50:37.144Z,69.40
2018-03-14T13:55:38.172Z,63.60
2018-03-14T14:00:35.456Z,62.40
2018-03-14T14:05:38.890Z,66.40
2018-03-14T14:10:36.098Z,70.40
2018-03-14T14:15:33.337Z,71.30
2018-03-14T14:20:30.467Z,64.80
2018-03-14T14:25:31.529Z,61.50
2018-03-14T14:30:28.701Z,61.80
2018-03-14T14:35:26.927Z,63.20
2018-03-14T14:40:25.303Z,63.40
2018-03-14T14:45:32.821Z,62.00
2018-03-14T14:50:30.078Z,61.80
2018-03-14T14:55:32.737Z,62.50
2018-03-14T15:00:30.037Z,62.30
2018-03-14T15:05:28.442Z,67.30
2018-03-14T15:10:25.745Z,66.70
2018-03-14T15:15:24.223Z,68.80
2018-03-14T15:20:21.477Z,70.10
2018-03-14T15:25:24.419Z,70.90
2018-03-14T15:30:21.563Z,69.10
2018-03-14T15:35:26.872Z,69.50
2018-03-14T15:40:24.017Z,71.60
2018-03-14T15:45:24.883Z,72.90
2018-03-14T15:50:22.191Z,72.20
2018-03-14T15:55:21.217Z,72.40
2018-03-14T16:00:18.459Z,71.50
2018-03-14T16:05:25.757Z,74.50
2018-03-14T16:10:22.946Z,73.00
2018-03-14T16:15:30.625Z,73.00
2018-03-14T16:20:27.813Z,73.50
2018-03-14T16:25:29.555Z,71.70
2018-03-14T16:30:26.893Z,70.80
2018-03-14T16:35:30.670Z,69.20
2018-03-14T16:40:27.881Z,69.80
2018-03-14T16:45:31.198Z,68.70
2018-03-14T16:50:28.343Z,70.00
2018-03-14T16:55:29.519Z,69.80
2018-03-14T17:00:26.884Z,70.90
2018-03-14T17:05:28.315Z,73.50
2018-03-14T17:10:25.648Z,75.50
2018-03-14T17:15:23.927Z,84.20
2018-03-14T17:20:21.184Z,91.40
2018-03-14T17:25:22.598Z,94.70
2018-03-14T17:30:19.514Z,94.60
2018-03-14T17:35:18.853Z,96.70
2018-03-14T17:40:16.215Z,99.20
2018-03-14T17:45:16.981Z,99.60
2018-03-14T17:50:14.346Z,99.00
2018-03-14T17:55:22.286Z,95.40
2018-03-14T18:00:19.637Z,95.60
2018-03-14T18:05:18.047Z,95.60
2018-03-14T18:10:15.212Z,96.70
2018-03-14T18:15:15.998Z,95.30
2018-03-14T18:20:13.352Z,96.40
2018-03-14T18:25:18.353Z,95.70
2018-03-14T18:30:16.123Z,98.30
2018-03-14T18:35:17.000Z,99.80
2018-03-14T18:40:15.106Z,95.90
2018-03-14T18:45:17.130Z,95.00
2018-03-14T18:50:14.228Z,95.20
2018-03-14T18:55:15.055Z,93.40
2018-03-14T19:00:12.210Z,98.20
2018-03-14T19:05:13.348Z,99.90
2018-03-14T19:10:10.803Z,99.50
2018-03-14T19:15:14.868Z,99.90
2018-03-14T19:20:12.540Z,99.90
2018-03-14T19:25:20.205Z,99.90
2018-03-14T19:30:17.406Z,99.90
2018-03-14T19:35:18.278Z,99.90
2018-03-14T19:40:16.380Z,99.90
2018-03-14T19:45:21.153Z,99.90
2018-03-14T19:50:18.464Z,99.90
2018-03-14T19:55:16.686Z,99.90
2018-03-14T20:00:14.214Z,99.90
2018-03-14T20:05:11.704Z,99.90
2018-03-14T20:10:08.863Z,99.90
2018-03-14T20:15:09.243Z,98.50
2018-03-14T20:20:08.169Z,96.60
2018-03-14T20:25:09.465Z,96.80
2018-03-14T20:35:25.276Z,95.90
2018-03-14T20:40:22.647Z,96.80
2018-03-14T20:45:20.090Z,96.30
2018-03-14T20:50:17.582Z,97.10
2018-03-14T20:55:18.467Z,96.60
2018-03-14T21:00:15.757Z,96.30
2018-03-14T21:05:13.058Z,96.40
2018-03-14T21:10:10.742Z,98.50
2018-03-14T21:15:14.566Z,99.90
2018-03-14T21:20:12.673Z,99.90
2018-03-14T21:25:14.850Z,99.90
2018-03-14T21:30:12.018Z,99.90
2018-03-14T21:35:12.644Z,99.90
2018-03-14T21:40:09.993Z,99.90
2018-03-14T21:45:11.481Z,99.90
2018-03-14T21:50:08.887Z,99.90
2018-03-14T21:55:09.428Z,99.90
2018-03-14T22:00:06.685Z,99.90
2018-03-14T22:05:10.003Z,99.90
2018-03-14T22:10:08.093Z,99.90
2018-03-14T22:15:06.552Z,99.90
2018-03-14T22:20:03.765Z,99.90
2018-03-14T22:25:04.666Z,99.90
2018-03-14T22:30:02.031Z,99.90
2018-03-14T22:35:00.461Z,99.90
2018-03-14T22:39:57.790Z,99.90
2018-03-14T22:44:59.544Z,99.90
2018-03-14T22:49:57.672Z,99.90
2018-03-14T22:55:01.548Z,99.90
2018-03-14T22:59:58.846Z,99.90
2018-03-14T23:05:02.011Z,99.90
2018-03-14T23:09:59.278Z,99.90
2018-03-14T23:15:00.282Z,99.90
2018-03-14T23:19:57.496Z,99.90
2018-03-14T23:24:55.837Z,99.90
2018-03-14T23:29:52.983Z,99.90
2018-03-14T23:34:57.117Z,99.90
2018-03-14T23:39:54.394Z,99.90
2018-03-14T23:44:52.632Z,99.90
2018-03-14T23:49:49.737Z,99.90
2018-03-14T23:54:50.358Z,99.90
2018-03-14T23:59:47.573Z,99.90
